sensor_id;sensor_type;location;lat;lon;timestamp;pressure;altitude;pressure_sealevel;temperature;humidity
69127;BME280;56688;50.234;19.292;2023-04-21T00:00:50;98694.27;;;4.82;78.48
69127;BME280;56688;50.234;19.292;2023-04-21T00:03:17;98688.71;;;4.81;78.21
69127;BME280;56688;50.234;19.292;2023-04-21T00:05:46;98694.38;;;4.79;77.97
69127;BME280;56688;50.234;19.292;2023-04-21T00:08:15;98691.23;;;4.71;78.27
69127;BME280;56688;50.234;19.292;2023-04-21T00:10:42;98692.17;;;4.72;78.18
69127;BME280;56688;50.234;19.292;2023-04-21T00:13:10;98690.99;;;4.70;78.21
69127;BME280;56688;50.234;19.292;2023-04-21T00:15:36;98689.72;;;4.67;77.99
69127;BME280;56688;50.234;19.292;2023-04-21T00:18:04;98686.88;;;4.64;78.15
69127;BME280;56688;50.234;19.292;2023-04-21T00:20:31;98682.83;;;4.63;78.13
69127;BME280;56688;50.234;19.292;2023-04-21T00:22:58;98684.73;;;4.64;78.33
69127;BME280;56688;50.234;19.292;2023-04-21T00:25:26;98681.68;;;4.53;78.63
69127;BME280;56688;50.234;19.292;2023-04-21T13:52:00;98413.16;;;29.36;18.88
69127;BME280;56688;50.234;19.292;2023-04-21T13:54:27;98410.55;;;29.50;17.24
69127;BME280;56688;50.234;19.292;2023-04-21T13:56:54;98408.66;;;29.55;18.07
69127;BME280;56688;50.234;19.292;2023-04-21T13:59:22;98405.86;;;29.71;16.12
69127;BME280;56688;50.234;19.292;2023-04-21T14:01:49;98396.39;;;29.83;16.59
69127;BME280;56688;50.234;19.292;2023-04-21T14:04:16;98389.69;;;29.95;17.20
69127;BME280;56688;50.234;19.292;2023-04-21T14:06:43;98388.20;;;30.11;17.21
69127;BME280;56688;50.234;19.292;2023-04-21T14:09:10;98382.21;;;30.36;16.85
69127;BME280;56688;50.234;19.292;2023-04-21T14:11:37;98380.20;;;30.62;16.50
69127;BME280;56688;50.234;19.292;2023-04-21T14:14:04;98377.27;;;30.89;15.90
69127;BME280;56688;50.234;19.292;2023-04-21T14:16:35;98380.34;;;31.08;16.12
69127;BME280;56688;50.234;19.292;2023-04-21T14:19:03;98383.13;;;30.78;16.05
69127;BME280;56688;50.234;19.292;2023-04-21T14:21:30;98380.34;;;30.19;16.81
69127;BME280;56688;50.234;19.292;2023-04-21T14:23:58;98380.08;;;29.62;16.78
69127;BME280;56688;50.234;19.292;2023-04-21T14:26:25;98380.51;;;28.95;17.86
69127;BME280;56688;50.234;19.292;2023-04-21T14:28:51;98382.53;;;28.17;18.53
69127;BME280;56688;50.234;19.292;2023-04-21T14:31:18;98383.48;;;27.38;18.55
69127;BME280;56688;50.234;19.292;2023-04-21T14:33:48;98379.33;;;26.68;19.60
69127;BME280;56688;50.234;19.292;2023-04-21T14:36:14;98372.70;;;26.11;19.74
69127;BME280;56688;50.234;19.292;2023-04-21T14:38:41;98372.53;;;25.56;20.04
69127;BME280;56688;50.234;19.292;2023-04-21T14:41:08;98371.67;;;25.10;20.57
69127;BME280;56688;50.234;19.292;2023-04-21T14:43:35;98367.98;;;24.76;22.87
69127;BME280;56688;50.234;19.292;2023-04-21T14:46:02;98363.77;;;24.41;22.02
69127;BME280;56688;50.234;19.292;2023-04-21T14:48:29;98358.65;;;24.10;21.79
69127;BME280;56688;50.234;19.292;2023-04-21T14:50:57;98359.48;;;23.78;22.03
69127;BME280;56688;50.234;19.292;2023-04-21T14:53:24;98358.27;;;23.43;22.65
69127;BME280;56688;50.234;19.292;2023-04-21T14:55:51;98357.70;;;23.18;23.35
69127;BME280;56688;50.234;19.292;2023-04-21T14:58:20;98365.55;;;22.90;23.21
69127;BME280;56688;50.234;19.292;2023-04-21T15:00:47;98362.86;;;22.59;22.89
69127;BME280;56688;50.234;19.292;2023-04-21T15:03:14;98361.02;;;22.20;23.71
69127;BME280;56688;50.234;19.292;2023-04-21T15:05:41;98354.73;;;21.95;23.75
69127;BME280;56688;50.234;19.292;2023-04-21T15:08:08;98352.18;;;21.74;23.72
69127;BME280;56688;50.234;19.292;2023-04-21T15:10:35;98353.77;;;21.56;25.26
69127;BME280;56688;50.234;19.292;2023-04-21T15:13:02;98354.30;;;21.44;24.80
69127;BME280;56688;50.234;19.292;2023-04-21T15:15:29;98353.67;;;21.32;24.58
69127;BME280;56688;50.234;19.292;2023-04-21T15:17:56;98351.67;;;21.15;24.60
69127;BME280;56688;50.234;19.292;2023-04-21T15:20:22;98347.55;;;20.95;24.99
69127;BME280;56688;50.234;19.292;2023-04-21T15:23:10;98347.54;;;20.86;25.25
69127;BME280;56688;50.234;19.292;2023-04-21T15:25:37;98352.48;;;20.69;25.66
69127;BME280;56688;50.234;19.292;2023-04-21T15:28:05;98346.50;;;20.62;25.80
69127;BME280;56688;50.234;19.292;2023-04-21T15:30:34;98343.80;;;20.63;25.71
69127;BME280;56688;50.234;19.292;2023-04-21T15:33:01;98342.85;;;20.55;25.98
69127;BME280;56688;50.234;19.292;2023-04-21T15:35:28;98342.67;;;20.48;26.35
69127;BME280;56688;50.234;19.292;2023-04-21T15:37:55;98341.06;;;20.42;26.28
69127;BME280;56688;50.234;19.292;2023-04-21T15:40:22;98341.61;;;20.33;26.53
69127;BME280;56688;50.234;19.292;2023-04-21T15:42:48;98342.31;;;20.22;26.55
69127;BME280;56688;50.234;19.292;2023-04-21T15:45:15;98340.16;;;20.10;26.36
69127;BME280;56688;50.234;19.292;2023-04-21T15:47:43;98338.55;;;19.91;26.47
69127;BME280;56688;50.234;19.292;2023-04-21T15:50:11;98334.23;;;19.77;26.40
69127;BME280;56688;50.234;19.292;2023-04-21T15:52:38;98333.59;;;19.66;26.73
69127;BME280;56688;50.234;19.292;2023-04-21T15:55:10;98332.10;;;19.56;26.97
69127;BME280;56688;50.234;19.292;2023-04-21T15:57:37;98327.79;;;19.47;26.88
69127;BME280;56688;50.234;19.292;2023-04-21T16:00:05;98329.48;;;19.36;27.03
69127;BME280;56688;50.234;19.292;2023-04-21T16:02:33;98333.00;;;19.26;27.71
69127;BME280;56688;50.234;19.292;2023-04-21T16:05:00;98327.52;;;19.13;27.64
69127;BME280;56688;50.234;19.292;2023-04-21T16:07:27;98328.63;;;18.98;27.14
69127;BME280;56688;50.234;19.292;2023-04-21T16:09:54;98326.69;;;18.86;27.51
69127;BME280;56688;50.234;19.292;2023-04-21T16:12:21;98326.00;;;18.73;27.29
69127;BME280;56688;50.234;19.292;2023-04-21T16:14:48;98325.18;;;18.61;28.26
69127;BME280;56688;50.234;19.292;2023-04-21T16:17:24;98322.58;;;18.49;27.46
69127;BME280;56688;50.234;19.292;2023-04-21T16:19:53;98325.58;;;18.38;28.11
69127;BME280;56688;50.234;19.292;2023-04-21T16:22:20;98329.39;;;18.25;27.96
69127;BME280;56688;50.234;19.292;2023-04-21T16:24:47;98325.49;;;18.11;27.69
69127;BME280;56688;50.234;19.292;2023-04-21T16:27:15;98328.25;;;17.97;28.02
69127;BME280;56688;50.234;19.292;2023-04-21T16:29:42;98326.33;;;17.82;27.99
69127;BME280;56688;50.234;19.292;2023-04-21T16:32:08;98329.09;;;17.67;28.63
69127;BME280;56688;50.234;19.292;2023-04-21T16:34:36;98327.57;;;17.53;28.77
69127;BME280;56688;50.234;19.292;2023-04-21T16:37:03;98331.31;;;17.38;28.84
69127;BME280;56688;50.234;19.292;2023-04-21T16:39:30;98331.50;;;17.25;28.80
69127;BME280;56688;50.234;19.292;2023-04-21T16:41:57;98328.45;;;17.12;29.49
69127;BME280;56688;50.234;19.292;2023-04-21T16:44:23;98327.88;;;17.00;29.31
69127;BME280;56688;50.234;19.292;2023-04-21T16:46:50;98332.71;;;16.85;29.36
69127;BME280;56688;50.234;19.292;2023-04-21T16:49:17;98333.23;;;16.74;29.83
69127;BME280;56688;50.234;19.292;2023-04-21T16:51:44;98334.69;;;16.62;29.69
69127;BME280;56688;50.234;19.292;2023-04-21T16:54:11;98333.55;;;16.52;29.81
69127;BME280;56688;50.234;19.292;2023-04-21T16:56:38;98334.86;;;16.42;29.87
69127;BME280;56688;50.234;19.292;2023-04-21T16:59:05;98338.66;;;16.32;30.19
69127;BME280;56688;50.234;19.292;2023-04-21T17:01:33;98339.63;;;16.22;30.47
69127;BME280;56688;50.234;19.292;2023-04-21T17:04:00;98337.73;;;16.11;30.36
69127;BME280;56688;50.234;19.292;2023-04-21T17:06:27;98339.11;;;16.01;30.61
69127;BME280;56688;50.234;19.292;2023-04-21T17:08:54;98339.91;;;15.91;30.76
69127;BME280;56688;50.234;19.292;2023-04-21T17:11:26;98336.06;;;15.79;30.96
69127;BME280;56688;50.234;19.292;2023-04-21T17:13:53;98339.16;;;15.69;31.39
69127;BME280;56688;50.234;19.292;2023-04-21T17:16:20;98339.10;;;15.58;31.58
69127;BME280;56688;50.234;19.292;2023-04-21T17:18:47;98336.23;;;15.47;31.75
69127;BME280;56688;50.234;19.292;2023-04-21T17:21:14;98337.09;;;15.37;31.96
69127;BME280;56688;50.234;19.292;2023-04-21T17:23:41;98333.95;;;15.27;32.73
69127;BME280;56688;50.234;19.292;2023-04-21T17:26:08;98334.25;;;15.18;32.77
69127;BME280;56688;50.234;19.292;2023-04-21T17:28:38;98336.78;;;15.09;33.02
69127;BME280;56688;50.234;19.292;2023-04-21T17:31:05;98337.19;;;15.00;33.35
69127;BME280;56688;50.234;19.292;2023-04-21T17:33:42;98337.77;;;14.91;33.26
69127;BME280;56688;50.234;19.292;2023-04-21T17:36:10;98341.93;;;14.82;33.52
69127;BME280;56688;50.234;19.292;2023-04-21T17:38:37;98343.02;;;14.72;33.77
69127;BME280;56688;50.234;19.292;2023-04-21T17:41:04;98339.77;;;14.63;34.06
69127;BME280;56688;50.234;19.292;2023-04-21T17:43:33;98344.13;;;14.53;35.02
69127;BME280;56688;50.234;19.292;2023-04-21T17:46:00;98344.10;;;14.41;36.16
69127;BME280;56688;50.234;19.292;2023-04-21T17:48:27;98345.16;;;14.29;36.51
69127;BME280;56688;50.234;19.292;2023-04-21T17:50:53;98348.06;;;14.16;37.62
69127;BME280;56688;50.234;19.292;2023-04-21T17:53:20;98344.36;;;14.01;37.89
69127;BME280;56688;50.234;19.292;2023-04-21T17:55:47;98349.09;;;13.87;38.53
69127;BME280;56688;50.234;19.292;2023-04-21T17:58:14;98348.53;;;13.71;39.53
69127;BME280;56688;50.234;19.292;2023-04-21T18:00:41;98351.52;;;13.55;40.27
69127;BME280;56688;50.234;19.292;2023-04-21T18:03:08;98352.80;;;13.38;40.97
69127;BME280;56688;50.234;19.292;2023-04-21T18:05:35;98353.89;;;13.19;43.00
69127;BME280;56688;50.234;19.292;2023-04-21T18:08:02;98353.85;;;13.00;43.65
69127;BME280;56688;50.234;19.292;2023-04-21T18:10:29;98363.02;;;12.80;43.89
69127;BME280;56688;50.234;19.292;2023-04-21T18:12:56;98364.07;;;12.59;43.85
69127;BME280;56688;50.234;19.292;2023-04-21T18:15:23;98362.92;;;12.39;44.96
69127;BME280;56688;50.234;19.292;2023-04-21T18:17:50;98370.45;;;12.18;45.18
69127;BME280;56688;50.234;19.292;2023-04-21T18:20:19;98369.31;;;11.97;45.85
69127;BME280;56688;50.234;19.292;2023-04-21T18:22:46;98369.20;;;11.76;46.80
69127;BME280;56688;50.234;19.292;2023-04-21T18:25:15;98368.71;;;11.55;47.44
69127;BME280;56688;50.234;19.292;2023-04-21T18:27:50;98366.48;;;11.33;47.58
69127;BME280;56688;50.234;19.292;2023-04-21T18:30:17;98367.71;;;11.13;47.94
69127;BME280;56688;50.234;19.292;2023-04-21T18:32:43;98372.09;;;10.94;49.02
69127;BME280;56688;50.234;19.292;2023-04-21T18:35:10;98373.20;;;10.74;49.73
69127;BME280;56688;50.234;19.292;2023-04-21T18:37:37;98374.07;;;10.52;50.66
69127;BME280;56688;50.234;19.292;2023-04-21T18:40:04;98377.79;;;10.34;50.89
69127;BME280;56688;50.234;19.292;2023-04-21T18:42:32;98376.13;;;10.16;51.91
69127;BME280;56688;50.234;19.292;2023-04-21T18:44:59;98378.13;;;9.98;52.31
69127;BME280;56688;50.234;19.292;2023-04-21T18:47:41;98381.13;;;9.78;52.52
69127;BME280;56688;50.234;19.292;2023-04-21T18:50:08;98379.73;;;9.58;52.97
69127;BME280;56688;50.234;19.292;2023-04-21T18:52:35;98381.73;;;9.40;53.65
69127;BME280;56688;50.234;19.292;2023-04-21T18:55:02;98378.10;;;9.25;54.01
69127;BME280;56688;50.234;19.292;2023-04-21T18:57:29;98376.33;;;9.10;55.05
69127;BME280;56688;50.234;19.292;2023-04-21T18:59:56;98375.77;;;8.95;55.64
69127;BME280;56688;50.234;19.292;2023-04-21T19:02:23;98382.77;;;8.79;55.93
69127;BME280;56688;50.234;19.292;2023-04-21T19:04:50;98385.64;;;8.67;56.40
69127;BME280;56688;50.234;19.292;2023-04-21T19:07:17;98384.84;;;8.54;57.07
69127;BME280;56688;50.234;19.292;2023-04-21T19:09:44;98382.70;;;8.40;57.30
69127;BME280;56688;50.234;19.292;2023-04-21T19:12:11;98385.80;;;8.27;57.94
69127;BME280;56688;50.234;19.292;2023-04-21T19:14:55;98383.77;;;8.14;58.70
69127;BME280;56688;50.234;19.292;2023-04-21T19:17:22;98382.58;;;8.01;58.97
69127;BME280;56688;50.234;19.292;2023-04-21T19:19:49;98386.27;;;7.89;59.42
69127;BME280;56688;50.234;19.292;2023-04-21T19:22:16;98384.77;;;7.77;59.60
69127;BME280;56688;50.234;19.292;2023-04-21T19:24:45;98384.05;;;7.65;59.41
69127;BME280;56688;50.234;19.292;2023-04-21T19:27:13;98386.49;;;7.52;60.20
69127;BME280;56688;50.234;19.292;2023-04-21T19:29:40;98382.79;;;7.41;60.65
69127;BME280;56688;50.234;19.292;2023-04-21T19:34:49;98381.64;;;7.21;61.94
69127;BME280;56688;50.234;19.292;2023-04-21T19:37:16;98383.52;;;7.11;62.54
69127;BME280;56688;50.234;19.292;2023-04-21T19:39:44;98384.55;;;7.03;63.27
69127;BME280;56688;50.234;19.292;2023-04-21T19:42:11;98386.55;;;6.93;62.72
69127;BME280;56688;50.234;19.292;2023-04-21T19:44:38;98384.78;;;6.83;63.34
69127;BME280;56688;50.234;19.292;2023-04-21T19:47:05;98383.39;;;6.77;63.33
69127;BME280;56688;50.234;19.292;2023-04-21T19:49:33;98389.46;;;6.73;63.84
69127;BME280;56688;50.234;19.292;2023-04-21T19:51:59;98388.63;;;6.73;64.21
69127;BME280;56688;50.234;19.292;2023-04-21T19:54:26;98387.67;;;6.72;64.76
69127;BME280;56688;50.234;19.292;2023-04-21T19:56:54;98388.61;;;6.71;65.26
69127;BME280;56688;50.234;19.292;2023-04-21T19:59:21;98386.59;;;6.68;65.52
69127;BME280;56688;50.234;19.292;2023-04-21T20:01:47;98386.91;;;6.65;65.02
69127;BME280;56688;50.234;19.292;2023-04-21T20:04:14;98388.21;;;6.60;64.91
69127;BME280;56688;50.234;19.292;2023-04-21T20:06:43;98388.67;;;6.51;64.84
69127;BME280;56688;50.234;19.292;2023-04-21T20:09:10;98395.89;;;6.43;65.22
69127;BME280;56688;50.234;19.292;2023-04-21T20:11:37;98397.41;;;6.35;65.60
69127;BME280;56688;50.234;19.292;2023-04-21T20:14:03;98400.89;;;6.27;65.49
69127;BME280;56688;50.234;19.292;2023-04-21T20:16:30;98404.36;;;6.20;65.99
69127;BME280;56688;50.234;19.292;2023-04-21T20:18:58;98405.16;;;6.12;66.60
69127;BME280;56688;50.234;19.292;2023-04-21T20:21:25;98404.92;;;6.05;67.14
69127;BME280;56688;50.234;19.292;2023-04-21T20:23:52;98405.20;;;5.97;66.72
69127;BME280;56688;50.234;19.292;2023-04-21T20:26:19;98410.15;;;5.90;66.67
69127;BME280;56688;50.234;19.292;2023-04-21T20:28:47;98411.52;;;5.82;67.42
69127;BME280;56688;50.234;19.292;2023-04-21T20:31:13;98413.67;;;5.81;67.36
69127;BME280;56688;50.234;19.292;2023-04-21T20:33:40;98414.02;;;5.80;67.82
69127;BME280;56688;50.234;19.292;2023-04-21T20:36:07;98409.37;;;5.79;68.22
69127;BME280;56688;50.234;19.292;2023-04-21T20:38:34;98408.80;;;5.77;68.59
69127;BME280;56688;50.234;19.292;2023-04-21T20:41:01;98410.93;;;5.76;68.86
69127;BME280;56688;50.234;19.292;2023-04-21T20:43:29;98412.36;;;5.71;68.83
69127;BME280;56688;50.234;19.292;2023-04-21T20:45:59;98413.06;;;5.66;68.67
69127;BME280;56688;50.234;19.292;2023-04-21T20:48:27;98414.06;;;5.58;69.09
69127;BME280;56688;50.234;19.292;2023-04-21T20:50:54;98416.42;;;5.48;69.00
69127;BME280;56688;50.234;19.292;2023-04-21T20:53:22;98417.27;;;5.42;69.32
69127;BME280;56688;50.234;19.292;2023-04-21T20:55:48;98417.30;;;5.35;69.40
69127;BME280;56688;50.234;19.292;2023-04-21T20:58:15;98417.12;;;5.29;69.55
69127;BME280;56688;50.234;19.292;2023-04-21T21:00:42;98414.74;;;5.27;69.83
69127;BME280;56688;50.234;19.292;2023-04-21T21:03:09;98417.17;;;5.27;69.92
69127;BME280;56688;50.234;19.292;2023-04-21T21:05:37;98417.16;;;5.27;69.86
69127;BME280;56688;50.234;19.292;2023-04-21T21:08:07;98418.06;;;5.27;70.21
69127;BME280;56688;50.234;19.292;2023-04-21T21:10:34;98419.33;;;5.22;69.98
69127;BME280;56688;50.234;19.292;2023-04-21T21:13:01;98414.92;;;5.17;70.34
69127;BME280;56688;50.234;19.292;2023-04-21T21:15:28;98416.32;;;5.13;70.56
69127;BME280;56688;50.234;19.292;2023-04-21T21:17:56;98419.29;;;5.10;70.67
69127;BME280;56688;50.234;19.292;2023-04-21T21:20:23;98415.29;;;5.03;70.23
69127;BME280;56688;50.234;19.292;2023-04-21T21:22:50;98417.83;;;4.95;70.58
69127;BME280;56688;50.234;19.292;2023-04-21T21:25:17;98419.62;;;4.88;70.58
69127;BME280;56688;50.234;19.292;2023-04-21T21:27:44;98421.34;;;4.83;70.86
69127;BME280;56688;50.234;19.292;2023-04-21T21:30:12;98418.04;;;4.81;71.09
69127;BME280;56688;50.234;19.292;2023-04-21T21:32:38;98418.08;;;4.80;71.22
69127;BME280;56688;50.234;19.292;2023-04-21T21:35:06;98421.61;;;4.79;71.46
69127;BME280;56688;50.234;19.292;2023-04-21T21:37:35;98423.69;;;4.77;71.59
69127;BME280;56688;50.234;19.292;2023-04-21T21:40:03;98423.62;;;4.76;71.57
69127;BME280;56688;50.234;19.292;2023-04-21T21:42:30;98422.93;;;4.74;71.73
69127;BME280;56688;50.234;19.292;2023-04-21T21:44:57;98424.66;;;4.71;71.66
69127;BME280;56688;50.234;19.292;2023-04-21T21:47:23;98425.40;;;4.65;71.87
69127;BME280;56688;50.234;19.292;2023-04-21T21:49:51;98426.80;;;4.58;71.81
69127;BME280;56688;50.234;19.292;2023-04-21T21:52:20;98424.84;;;4.52;71.86
69127;BME280;56688;50.234;19.292;2023-04-21T21:54:47;98425.06;;;4.46;72.04
69127;BME280;56688;50.234;19.292;2023-04-21T21:57:14;98428.69;;;4.44;72.28
69127;BME280;56688;50.234;19.292;2023-04-21T21:59:41;98432.02;;;4.44;72.38
69127;BME280;56688;50.234;19.292;2023-04-21T22:02:08;98430.95;;;4.45;72.32
69127;BME280;56688;50.234;19.292;2023-04-21T22:04:35;98431.85;;;4.43;72.25
69127;BME280;56688;50.234;19.292;2023-04-21T22:07:03;98433.02;;;4.42;72.59
69127;BME280;56688;50.234;19.292;2023-04-21T22:09:31;98430.80;;;4.39;72.67
69127;BME280;56688;50.234;19.292;2023-04-21T22:11:58;98434.23;;;4.37;72.49
69127;BME280;56688;50.234;19.292;2023-04-21T22:14:24;98434.86;;;4.32;72.76
69127;BME280;56688;50.234;19.292;2023-04-21T22:16:51;98433.20;;;4.26;73.03
69127;BME280;56688;50.234;19.292;2023-04-21T22:19:19;98434.81;;;4.22;73.38
69127;BME280;56688;50.234;19.292;2023-04-21T22:21:46;98436.30;;;4.19;73.33
69127;BME280;56688;50.234;19.292;2023-04-21T22:24:13;98430.84;;;4.17;73.34
69127;BME280;56688;50.234;19.292;2023-04-21T22:26:42;98433.75;;;4.18;73.56
69127;BME280;56688;50.234;19.292;2023-04-21T22:29:08;98430.95;;;4.20;73.78
69127;BME280;56688;50.234;19.292;2023-04-21T22:31:36;98431.05;;;4.21;73.82
69127;BME280;56688;50.234;19.292;2023-04-21T22:34:04;98431.48;;;4.20;73.61
69127;BME280;56688;50.234;19.292;2023-04-21T22:36:30;98431.20;;;4.15;73.60
69127;BME280;56688;50.234;19.292;2023-04-21T22:38:58;98430.83;;;4.12;73.54
69127;BME280;56688;50.234;19.292;2023-04-21T22:41:25;98432.36;;;4.08;73.73
69127;BME280;56688;50.234;19.292;2023-04-21T22:43:53;98431.83;;;4.02;74.25
69127;BME280;56688;50.234;19.292;2023-04-21T22:46:19;98430.56;;;3.98;74.31
69127;BME280;56688;50.234;19.292;2023-04-21T22:48:47;98429.02;;;3.96;74.27
69127;BME280;56688;50.234;19.292;2023-04-21T22:51:14;98428.64;;;3.95;74.17
69127;BME280;56688;50.234;19.292;2023-04-21T22:53:41;98426.42;;;3.94;74.28
69127;BME280;56688;50.234;19.292;2023-04-21T22:56:07;98427.48;;;3.94;74.56
69127;BME280;56688;50.234;19.292;2023-04-21T22:58:34;98432.05;;;3.96;74.54
69127;BME280;56688;50.234;19.292;2023-04-21T23:01:01;98430.70;;;3.97;74.57
69127;BME280;56688;50.234;19.292;2023-04-21T23:03:28;98432.77;;;3.96;74.56
69127;BME280;56688;50.234;19.292;2023-04-21T23:05:56;98431.66;;;3.93;74.43
69127;BME280;56688;50.234;19.292;2023-04-21T23:08:24;98427.35;;;3.86;74.33
69127;BME280;56688;50.234;19.292;2023-04-21T23:10:51;98429.16;;;3.80;74.39
69127;BME280;56688;50.234;19.292;2023-04-21T23:13:18;98428.69;;;3.76;74.43
69127;BME280;56688;50.234;19.292;2023-04-21T23:15:45;98427.63;;;3.74;74.78
69127;BME280;56688;50.234;19.292;2023-04-21T23:18:11;98433.48;;;3.74;74.76
69127;BME280;56688;50.234;19.292;2023-04-21T23:20:38;98429.75;;;3.74;74.85
69127;BME280;56688;50.234;19.292;2023-04-21T23:23:05;98432.77;;;3.76;74.97
69127;BME280;56688;50.234;19.292;2023-04-21T23:25:32;98428.41;;;3.77;75.00
69127;BME280;56688;50.234;19.292;2023-04-21T23:27:59;98429.08;;;3.76;74.80
69127;BME280;56688;50.234;19.292;2023-04-21T23:30:26;98428.54;;;3.72;74.66
69127;BME280;56688;50.234;19.292;2023-04-21T23:32:53;98425.52;;;3.65;74.66
69127;BME280;56688;50.234;19.292;2023-04-21T23:35:20;98422.15;;;3.60;74.94
69127;BME280;56688;50.234;19.292;2023-04-21T23:37:47;98423.48;;;3.58;75.07
69127;BME280;56688;50.234;19.292;2023-04-21T23:40:14;98421.74;;;3.56;75.36
69127;BME280;56688;50.234;19.292;2023-04-21T23:42:41;98417.02;;;3.56;75.43
69127;BME280;56688;50.234;19.292;2023-04-21T23:45:13;98421.45;;;3.57;75.45
69127;BME280;56688;50.234;19.292;2023-04-21T23:47:40;98423.11;;;3.58;75.48
69127;BME280;56688;50.234;19.292;2023-04-21T23:50:07;98419.16;;;3.56;75.33
69127;BME280;56688;50.234;19.292;2023-04-21T23:52:34;98420.68;;;3.56;75.30
69127;BME280;56688;50.234;19.292;2023-04-21T23:55:01;98416.48;;;3.55;75.42
69127;BME280;56688;50.234;19.292;2023-04-21T23:57:28;98419.84;;;3.52;75.65
69127;BME280;56688;50.234;19.292;2023-04-21T23:59:55;98416.82;;;3.49;75.39
